sensor_id;sensor_type;location;lat;lon;timestamp;P1;durP1;ratioP1;P2;durP2;ratioP2
13147;SDS011;6639;50.956;4.242;2024-03-02T00:00:49;0.60;;;0.60;;
13147;SDS011;6639;50.956;4.242;2024-03-02T00:03:17;1.92;;;0.60;;
13147;SDS011;6639;50.956;4.242;2024-03-02T00:05:47;0.90;;;0.90;;
13147;SDS011;6639;50.956;4.242;2024-03-02T00:08:18;0.43;;;0.43;;
13147;SDS011;6639;50.956;4.242;2024-03-02T00:10:50;1.15;;;0.50;;
13147;SDS011;6639;50.956;4.242;2024-03-02T00:13:23;0.50;;;0.45;;
13147;SDS011;6639;50.956;4.242;2024-03-02T00:15:52;0.50;;;0.50;;
13147;SDS011;6639;50.956;4.242;2024-03-02T00:18:21;0.35;;;0.35;;
13147;SDS011;6639;50.956;4.242;2024-03-02T00:20:52;0.57;;;0.57;;
13147;SDS011;6639;50.956;4.242;2024-03-02T00:23:21;0.88;;;0.50;;
13147;SDS011;6639;50.956;4.242;2024-03-02T00:25:49;0.50;;;0.50;;
13147;SDS011;6639;50.956;4.242;2024-03-02T00:28:19;1.63;;;1.00;;
13147;SDS011;6639;50.956;4.242;2024-03-02T00:33:32;0.60;;;0.60;;
13147;SDS011;6639;50.956;4.242;2024-03-02T00:36:00;2.17;;;0.90;;
13147;SDS011;6639;50.956;4.242;2024-03-02T00:38:28;0.82;;;0.70;;
13147;SDS011;6639;50.956;4.242;2024-03-02T00:40:56;3.50;;;0.52;;
13147;SDS011;6639;50.956;4.242;2024-03-02T00:46:27;2.83;;;0.50;;
13147;SDS011;6639;50.956;4.242;2024-03-02T00:48:56;1.95;;;0.50;;
13147;SDS011;6639;50.956;4.242;2024-03-02T00:51:24;0.68;;;0.68;;
13147;SDS011;6639;50.956;4.242;2024-03-02T00:53:52;0.55;;;0.40;;
13147;SDS011;6639;50.956;4.242;2024-03-02T00:56:22;0.35;;;0.35;;
13147;SDS011;6639;50.956;4.242;2024-03-02T00:58:49;1.73;;;0.50;;
13147;SDS011;6639;50.956;4.242;2024-03-02T01:01:17;2.92;;;0.60;;
13147;SDS011;6639;50.956;4.242;2024-03-02T01:03:46;0.40;;;0.40;;
13147;SDS011;6639;50.956;4.242;2024-03-02T01:06:14;0.52;;;0.35;;
13147;SDS011;6639;50.956;4.242;2024-03-02T01:08:41;0.40;;;0.40;;
13147;SDS011;6639;50.956;4.242;2024-03-02T01:11:09;0.65;;;0.52;;
13147;SDS011;6639;50.956;4.242;2024-03-02T01:13:36;1.08;;;0.40;;
13147;SDS011;6639;50.956;4.242;2024-03-02T01:16:03;0.68;;;0.30;;
13147;SDS011;6639;50.956;4.242;2024-03-02T01:18:30;0.40;;;0.40;;
13147;SDS011;6639;50.956;4.242;2024-03-02T01:20:58;0.30;;;0.30;;
13147;SDS011;6639;50.956;4.242;2024-03-02T01:23:25;0.65;;;0.60;;
13147;SDS011;6639;50.956;4.242;2024-03-02T01:25:52;0.40;;;0.40;;
13147;SDS011;6639;50.956;4.242;2024-03-02T01:28:20;0.50;;;0.40;;
13147;SDS011;6639;50.956;4.242;2024-03-02T01:30:47;2.58;;;0.30;;
13147;SDS011;6639;50.956;4.242;2024-03-02T01:33:14;2.15;;;0.50;;
13147;SDS011;6639;50.956;4.242;2024-03-02T01:35:41;0.40;;;0.40;;
13147;SDS011;6639;50.956;4.242;2024-03-02T01:38:09;0.43;;;0.43;;
13147;SDS011;6639;50.956;4.242;2024-03-02T01:40:37;0.50;;;0.25;;
13147;SDS011;6639;50.956;4.242;2024-03-02T01:43:04;1.00;;;0.63;;
13147;SDS011;6639;50.956;4.242;2024-03-02T01:45:32;2.47;;;0.52;;
13147;SDS011;6639;50.956;4.242;2024-03-02T01:48:00;1.40;;;0.60;;
13147;SDS011;6639;50.956;4.242;2024-03-02T01:50:27;0.30;;;0.30;;
13147;SDS011;6639;50.956;4.242;2024-03-02T01:52:55;0.63;;;0.50;;
13147;SDS011;6639;50.956;4.242;2024-03-02T01:55:24;0.80;;;0.40;;
13147;SDS011;6639;50.956;4.242;2024-03-02T01:57:51;0.30;;;0.30;;
13147;SDS011;6639;50.956;4.242;2024-03-02T02:00:19;0.30;;;0.30;;
13147;SDS011;6639;50.956;4.242;2024-03-02T02:02:47;1.42;;;0.60;;
13147;SDS011;6639;50.956;4.242;2024-03-02T02:05:14;0.57;;;0.57;;
13147;SDS011;6639;50.956;4.242;2024-03-02T02:07:41;0.50;;;0.50;;
13147;SDS011;6639;50.956;4.242;2024-03-02T02:10:09;2.10;;;0.60;;
13147;SDS011;6639;50.956;4.242;2024-03-02T02:12:38;0.90;;;0.68;;
13147;SDS011;6639;50.956;4.242;2024-03-02T02:17:51;0.65;;;0.65;;
13147;SDS011;6639;50.956;4.242;2024-03-02T02:20:18;1.48;;;0.60;;
13147;SDS011;6639;50.956;4.242;2024-03-02T02:23:00;0.43;;;0.43;;
13147;SDS011;6639;50.956;4.242;2024-03-02T02:25:28;2.90;;;0.93;;
13147;SDS011;6639;50.956;4.242;2024-03-02T02:27:56;1.42;;;0.52;;
13147;SDS011;6639;50.956;4.242;2024-03-02T02:30:23;1.20;;;0.90;;
13147;SDS011;6639;50.956;4.242;2024-03-02T02:32:51;0.35;;;0.35;;
13147;SDS011;6639;50.956;4.242;2024-03-02T02:35:19;1.05;;;0.85;;
13147;SDS011;6639;50.956;4.242;2024-03-02T02:37:46;1.15;;;0.80;;
13147;SDS011;6639;50.956;4.242;2024-03-02T02:40:16;3.53;;;0.90;;
13147;SDS011;6639;50.956;4.242;2024-03-02T02:42:44;1.00;;;0.65;;
13147;SDS011;6639;50.956;4.242;2024-03-02T02:45:11;0.70;;;0.60;;
13147;SDS011;6639;50.956;4.242;2024-03-02T02:47:39;1.42;;;0.80;;
13147;SDS011;6639;50.956;4.242;2024-03-02T02:50:07;0.40;;;0.40;;
13147;SDS011;6639;50.956;4.242;2024-03-02T02:52:34;0.40;;;0.40;;
13147;SDS011;6639;50.956;4.242;2024-03-02T02:55:04;1.67;;;0.90;;
13147;SDS011;6639;50.956;4.242;2024-03-02T02:57:34;1.98;;;0.50;;
13147;SDS011;6639;50.956;4.242;2024-03-02T03:00:03;2.13;;;0.80;;
13147;SDS011;6639;50.956;4.242;2024-03-02T03:02:35;0.60;;;0.60;;
13147;SDS011;6639;50.956;4.242;2024-03-02T03:05:07;0.60;;;0.47;;
13147;SDS011;6639;50.956;4.242;2024-03-02T03:07:34;1.92;;;0.70;;
13147;SDS011;6639;50.956;4.242;2024-03-02T03:10:02;2.65;;;0.63;;
13147;SDS011;6639;50.956;4.242;2024-03-02T03:12:29;0.50;;;0.50;;
13147;SDS011;6639;50.956;4.242;2024-03-02T03:14:58;1.17;;;0.80;;
13147;SDS011;6639;50.956;4.242;2024-03-02T03:17:25;2.13;;;0.70;;
13147;SDS011;6639;50.956;4.242;2024-03-02T03:19:53;0.60;;;0.50;;
13147;SDS011;6639;50.956;4.242;2024-03-02T03:22:20;0.80;;;0.70;;
13147;SDS011;6639;50.956;4.242;2024-03-02T03:24:46;1.85;;;0.70;;
13147;SDS011;6639;50.956;4.242;2024-03-02T03:27:14;2.17;;;0.63;;
13147;SDS011;6639;50.956;4.242;2024-03-02T03:29:41;1.85;;;0.65;;
13147;SDS011;6639;50.956;4.242;2024-03-02T03:32:09;2.40;;;0.85;;
13147;SDS011;6639;50.956;4.242;2024-03-02T03:34:36;1.88;;;0.93;;
13147;SDS011;6639;50.956;4.242;2024-03-02T03:37:03;2.00;;;1.02;;
13147;SDS011;6639;50.956;4.242;2024-03-02T03:39:30;1.98;;;0.80;;
13147;SDS011;6639;50.956;4.242;2024-03-02T03:41:57;3.35;;;1.20;;
13147;SDS011;6639;50.956;4.242;2024-03-02T03:44:24;1.48;;;0.80;;
13147;SDS011;6639;50.956;4.242;2024-03-02T03:46:51;3.28;;;1.10;;
13147;SDS011;6639;50.956;4.242;2024-03-02T03:49:19;1.33;;;0.70;;
13147;SDS011;6639;50.956;4.242;2024-03-02T03:51:46;0.68;;;0.68;;
13147;SDS011;6639;50.956;4.242;2024-03-02T03:54:13;3.28;;;0.98;;
13147;SDS011;6639;50.956;4.242;2024-03-02T03:56:40;0.65;;;0.65;;
13147;SDS011;6639;50.956;4.242;2024-03-02T03:59:06;5.05;;;0.85;;
13147;SDS011;6639;50.956;4.242;2024-03-02T04:01:33;2.88;;;0.93;;
13147;SDS011;6639;50.956;4.242;2024-03-02T04:03:59;2.92;;;0.70;;
13147;SDS011;6639;50.956;4.242;2024-03-02T04:06:30;2.30;;;1.15;;
13147;SDS011;6639;50.956;4.242;2024-03-02T04:08:57;1.58;;;1.00;;
13147;SDS011;6639;50.956;4.242;2024-03-02T04:11:24;1.75;;;0.80;;
13147;SDS011;6639;50.956;4.242;2024-03-02T04:13:50;2.35;;;0.90;;
13147;SDS011;6639;50.956;4.242;2024-03-02T04:16:17;0.95;;;0.73;;
13147;SDS011;6639;50.956;4.242;2024-03-02T04:18:44;1.23;;;0.85;;
13147;SDS011;6639;50.956;4.242;2024-03-02T04:21:11;3.47;;;1.00;;
13147;SDS011;6639;50.956;4.242;2024-03-02T04:23:39;1.58;;;1.00;;
13147;SDS011;6639;50.956;4.242;2024-03-02T04:26:06;0.90;;;0.70;;
13147;SDS011;6639;50.956;4.242;2024-03-02T04:28:33;1.60;;;0.60;;
13147;SDS011;6639;50.956;4.242;2024-03-02T04:31:00;0.95;;;0.70;;
13147;SDS011;6639;50.956;4.242;2024-03-02T04:33:27;1.92;;;0.93;;
13147;SDS011;6639;50.956;4.242;2024-03-02T04:35:54;1.90;;;0.75;;
13147;SDS011;6639;50.956;4.242;2024-03-02T04:38:22;1.30;;;0.95;;
13147;SDS011;6639;50.956;4.242;2024-03-02T04:40:51;3.22;;;1.42;;
13147;SDS011;6639;50.956;4.242;2024-03-02T04:43:17;2.22;;;1.00;;
13147;SDS011;6639;50.956;4.242;2024-03-02T04:45:45;1.02;;;0.70;;
13147;SDS011;6639;50.956;4.242;2024-03-02T04:48:11;0.60;;;0.60;;
13147;SDS011;6639;50.956;4.242;2024-03-02T04:50:39;2.95;;;1.25;;
13147;SDS011;6639;50.956;4.242;2024-03-02T04:53:06;2.88;;;1.08;;
13147;SDS011;6639;50.956;4.242;2024-03-02T04:55:33;3.10;;;0.82;;
13147;SDS011;6639;50.956;4.242;2024-03-02T04:58:36;1.83;;;0.82;;
13147;SDS011;6639;50.956;4.242;2024-03-02T05:01:03;0.93;;;0.73;;
13147;SDS011;6639;50.956;4.242;2024-03-02T05:03:30;2.13;;;0.80;;
13147;SDS011;6639;50.956;4.242;2024-03-02T05:05:59;2.13;;;0.80;;
13147;SDS011;6639;50.956;4.242;2024-03-02T05:08:26;0.98;;;0.88;;
13147;SDS011;6639;50.956;4.242;2024-03-02T05:10:53;2.88;;;0.90;;
13147;SDS011;6639;50.956;4.242;2024-03-02T05:13:41;3.15;;;1.05;;
13147;SDS011;6639;50.956;4.242;2024-03-02T05:16:08;3.17;;;1.10;;
13147;SDS011;6639;50.956;4.242;2024-03-02T05:18:37;1.45;;;0.88;;
13147;SDS011;6639;50.956;4.242;2024-03-02T05:21:04;2.83;;;0.90;;
13147;SDS011;6639;50.956;4.242;2024-03-02T05:23:31;2.05;;;0.82;;
13147;SDS011;6639;50.956;4.242;2024-03-02T05:25:58;1.33;;;1.00;;
13147;SDS011;6639;50.956;4.242;2024-03-02T05:28:25;1.77;;;0.80;;
13147;SDS011;6639;50.956;4.242;2024-03-02T05:30:53;4.35;;;0.80;;
13147;SDS011;6639;50.956;4.242;2024-03-02T05:33:21;2.75;;;1.23;;
13147;SDS011;6639;50.956;4.242;2024-03-02T05:35:48;1.73;;;0.70;;
13147;SDS011;6639;50.956;4.242;2024-03-02T05:38:15;1.35;;;0.55;;
13147;SDS011;6639;50.956;4.242;2024-03-02T05:40:43;2.75;;;1.20;;
13147;SDS011;6639;50.956;4.242;2024-03-02T05:43:10;1.52;;;0.60;;
13147;SDS011;6639;50.956;4.242;2024-03-02T05:45:36;3.95;;;0.77;;
13147;SDS011;6639;50.956;4.242;2024-03-02T05:48:06;1.77;;;1.00;;
13147;SDS011;6639;50.956;4.242;2024-03-02T05:50:34;2.50;;;0.80;;
13147;SDS011;6639;50.956;4.242;2024-03-02T05:53:01;2.30;;;0.98;;
13147;SDS011;6639;50.956;4.242;2024-03-02T05:55:27;2.78;;;0.80;;
13147;SDS011;6639;50.956;4.242;2024-03-02T05:57:54;3.47;;;0.80;;
13147;SDS011;6639;50.956;4.242;2024-03-02T06:00:36;2.05;;;1.20;;
13147;SDS011;6639;50.956;4.242;2024-03-02T06:03:03;2.58;;;0.80;;
13147;SDS011;6639;50.956;4.242;2024-03-02T06:05:33;2.63;;;0.93;;
13147;SDS011;6639;50.956;4.242;2024-03-02T06:07:59;1.77;;;0.82;;
13147;SDS011;6639;50.956;4.242;2024-03-02T06:10:27;0.98;;;0.85;;
13147;SDS011;6639;50.956;4.242;2024-03-02T06:12:53;2.25;;;0.73;;
13147;SDS011;6639;50.956;4.242;2024-03-02T06:15:20;3.38;;;1.17;;
13147;SDS011;6639;50.956;4.242;2024-03-02T06:17:47;1.92;;;0.90;;
13147;SDS011;6639;50.956;4.242;2024-03-02T06:20:15;2.70;;;1.02;;
13147;SDS011;6639;50.956;4.242;2024-03-02T06:22:42;2.88;;;0.85;;
13147;SDS011;6639;50.956;4.242;2024-03-02T06:25:09;1.70;;;0.80;;
13147;SDS011;6639;50.956;4.242;2024-03-02T06:27:36;2.22;;;0.93;;
13147;SDS011;6639;50.956;4.242;2024-03-02T06:30:03;3.08;;;1.00;;
13147;SDS011;6639;50.956;4.242;2024-03-02T06:32:31;4.50;;;1.15;;
13147;SDS011;6639;50.956;4.242;2024-03-02T06:34:58;2.38;;;1.00;;
13147;SDS011;6639;50.956;4.242;2024-03-02T06:37:26;3.42;;;1.23;;
13147;SDS011;6639;50.956;4.242;2024-03-02T06:39:53;1.15;;;1.05;;
13147;SDS011;6639;50.956;4.242;2024-03-02T06:42:20;3.03;;;1.10;;
13147;SDS011;6639;50.956;4.242;2024-03-02T06:44:47;3.92;;;1.00;;
13147;SDS011;6639;50.956;4.242;2024-03-02T06:47:14;1.52;;;1.00;;
13147;SDS011;6639;50.956;4.242;2024-03-02T06:49:41;3.20;;;0.80;;
13147;SDS011;6639;50.956;4.242;2024-03-02T06:52:08;4.90;;;1.30;;
13147;SDS011;6639;50.956;4.242;2024-03-02T06:54:37;3.38;;;0.98;;
13147;SDS011;6639;50.956;4.242;2024-03-02T06:57:04;3.10;;;1.00;;
13147;SDS011;6639;50.956;4.242;2024-03-02T06:59:31;1.95;;;1.00;;
13147;SDS011;6639;50.956;4.242;2024-03-02T07:01:58;1.35;;;0.82;;
13147;SDS011;6639;50.956;4.242;2024-03-02T07:04:26;3.90;;;1.60;;
13147;SDS011;6639;50.956;4.242;2024-03-02T07:06:55;5.05;;;1.80;;
13147;SDS011;6639;50.956;4.242;2024-03-02T07:09:22;1.85;;;1.25;;
13147;SDS011;6639;50.956;4.242;2024-03-02T07:11:52;5.60;;;1.42;;
13147;SDS011;6639;50.956;4.242;2024-03-02T07:14:19;3.38;;;0.93;;
13147;SDS011;6639;50.956;4.242;2024-03-02T07:16:46;2.45;;;1.17;;
13147;SDS011;6639;50.956;4.242;2024-03-02T07:19:13;3.25;;;1.17;;
13147;SDS011;6639;50.956;4.242;2024-03-02T07:21:40;1.77;;;0.90;;
13147;SDS011;6639;50.956;4.242;2024-03-02T07:24:07;3.22;;;0.90;;
13147;SDS011;6639;50.956;4.242;2024-03-02T07:26:38;2.65;;;1.15;;
13147;SDS011;6639;50.956;4.242;2024-03-02T07:29:07;4.78;;;1.08;;
13147;SDS011;6639;50.956;4.242;2024-03-02T07:31:35;2.22;;;1.10;;
13147;SDS011;6639;50.956;4.242;2024-03-02T07:34:02;2.63;;;1.10;;
13147;SDS011;6639;50.956;4.242;2024-03-02T07:36:29;1.75;;;1.05;;
13147;SDS011;6639;50.956;4.242;2024-03-02T07:38:56;2.92;;;0.90;;
13147;SDS011;6639;50.956;4.242;2024-03-02T07:41:23;7.03;;;1.27;;
13147;SDS011;6639;50.956;4.242;2024-03-02T07:43:50;3.35;;;1.00;;
13147;SDS011;6639;50.956;4.242;2024-03-02T07:46:20;2.67;;;1.15;;
13147;SDS011;6639;50.956;4.242;2024-03-02T07:48:47;3.15;;;0.80;;
13147;SDS011;6639;50.956;4.242;2024-03-02T07:51:16;6.40;;;1.48;;
13147;SDS011;6639;50.956;4.242;2024-03-02T07:53:43;2.85;;;1.10;;
13147;SDS011;6639;50.956;4.242;2024-03-02T07:56:10;4.15;;;1.30;;
13147;SDS011;6639;50.956;4.242;2024-03-02T07:58:37;3.85;;;1.33;;
13147;SDS011;6639;50.956;4.242;2024-03-02T08:01:04;3.13;;;1.67;;
13147;SDS011;6639;50.956;4.242;2024-03-02T08:03:32;5.03;;;1.40;;
13147;SDS011;6639;50.956;4.242;2024-03-02T08:05:59;3.35;;;1.10;;
13147;SDS011;6639;50.956;4.242;2024-03-02T08:08:26;3.33;;;0.95;;
13147;SDS011;6639;50.956;4.242;2024-03-02T08:10:53;4.22;;;1.40;;
13147;SDS011;6639;50.956;4.242;2024-03-02T08:13:20;5.00;;;1.42;;
13147;SDS011;6639;50.956;4.242;2024-03-02T08:15:47;2.42;;;1.33;;
13147;SDS011;6639;50.956;4.242;2024-03-02T08:18:14;2.47;;;1.02;;
13147;SDS011;6639;50.956;4.242;2024-03-02T08:20:42;2.03;;;1.60;;
13147;SDS011;6639;50.956;4.242;2024-03-02T08:23:09;3.45;;;1.38;;
13147;SDS011;6639;50.956;4.242;2024-03-02T08:25:36;3.85;;;1.58;;
13147;SDS011;6639;50.956;4.242;2024-03-02T08:28:03;3.58;;;1.10;;
13147;SDS011;6639;50.956;4.242;2024-03-02T08:30:30;4.82;;;1.60;;
13147;SDS011;6639;50.956;4.242;2024-03-02T08:32:58;1.88;;;1.20;;
13147;SDS011;6639;50.956;4.242;2024-03-02T08:35:24;3.22;;;1.35;;
13147;SDS011;6639;50.956;4.242;2024-03-02T08:37:53;3.90;;;1.90;;
13147;SDS011;6639;50.956;4.242;2024-03-02T08:40:20;5.97;;;2.33;;
13147;SDS011;6639;50.956;4.242;2024-03-02T08:42:47;2.22;;;1.45;;
13147;SDS011;6639;50.956;4.242;2024-03-02T08:45:14;2.03;;;1.23;;
13147;SDS011;6639;50.956;4.242;2024-03-02T08:47:41;1.75;;;1.38;;
13147;SDS011;6639;50.956;4.242;2024-03-02T08:50:08;3.55;;;1.13;;
13147;SDS011;6639;50.956;4.242;2024-03-02T08:52:35;5.38;;;1.30;;
13147;SDS011;6639;50.956;4.242;2024-03-02T08:55:04;3.33;;;1.40;;
13147;SDS011;6639;50.956;4.242;2024-03-02T08:57:32;4.95;;;1.63;;
13147;SDS011;6639;50.956;4.242;2024-03-02T08:59:59;3.75;;;1.35;;
13147;SDS011;6639;50.956;4.242;2024-03-02T09:02:26;5.43;;;1.58;;
13147;SDS011;6639;50.956;4.242;2024-03-02T09:04:53;1.48;;;1.23;;
13147;SDS011;6639;50.956;4.242;2024-03-02T09:07:20;3.17;;;1.20;;
13147;SDS011;6639;50.956;4.242;2024-03-02T09:09:47;4.53;;;1.67;;
13147;SDS011;6639;50.956;4.242;2024-03-02T09:12:15;3.65;;;1.27;;
13147;SDS011;6639;50.956;4.242;2024-03-02T09:14:43;2.00;;;1.15;;
13147;SDS011;6639;50.956;4.242;2024-03-02T09:17:11;3.10;;;1.52;;
13147;SDS011;6639;50.956;4.242;2024-03-02T09:19:40;3.42;;;1.30;;
13147;SDS011;6639;50.956;4.242;2024-03-02T09:22:07;2.60;;;1.35;;
13147;SDS011;6639;50.956;4.242;2024-03-02T09:24:34;3.25;;;1.20;;
13147;SDS011;6639;50.956;4.242;2024-03-02T09:27:01;6.05;;;1.40;;
13147;SDS011;6639;50.956;4.242;2024-03-02T09:29:30;3.38;;;1.30;;
13147;SDS011;6639;50.956;4.242;2024-03-02T09:31:57;1.50;;;1.10;;
13147;SDS011;6639;50.956;4.242;2024-03-02T09:34:25;8.25;;;1.55;;
13147;SDS011;6639;50.956;4.242;2024-03-02T09:36:52;2.25;;;1.10;;
13147;SDS011;6639;50.956;4.242;2024-03-02T09:39:20;4.78;;;1.17;;
13147;SDS011;6639;50.956;4.242;2024-03-02T09:41:47;4.05;;;1.27;;
13147;SDS011;6639;50.956;4.242;2024-03-02T09:44:14;4.75;;;1.77;;
13147;SDS011;6639;50.956;4.242;2024-03-02T09:46:43;1.55;;;1.25;;
13147;SDS011;6639;50.956;4.242;2024-03-02T09:49:12;6.90;;;1.65;;
13147;SDS011;6639;50.956;4.242;2024-03-02T09:51:39;2.35;;;1.27;;
13147;SDS011;6639;50.956;4.242;2024-03-02T09:54:12;3.92;;;1.17;;
13147;SDS011;6639;50.956;4.242;2024-03-02T09:56:40;3.75;;;1.40;;
13147;SDS011;6639;50.956;4.242;2024-03-02T09:59:08;2.97;;;1.27;;
13147;SDS011;6639;50.956;4.242;2024-03-02T10:01:36;7.00;;;1.88;;
13147;SDS011;6639;50.956;4.242;2024-03-02T10:04:04;1.98;;;1.10;;
13147;SDS011;6639;50.956;4.242;2024-03-02T10:06:33;5.22;;;1.52;;
13147;SDS011;6639;50.956;4.242;2024-03-02T10:09:00;4.07;;;1.20;;
13147;SDS011;6639;50.956;4.242;2024-03-02T10:11:27;6.00;;;1.73;;
13147;SDS011;6639;50.956;4.242;2024-03-02T10:14:06;2.80;;;1.20;;
13147;SDS011;6639;50.956;4.242;2024-03-02T10:16:34;5.53;;;1.40;;
13147;SDS011;6639;50.956;4.242;2024-03-02T10:19:20;2.20;;;1.30;;
13147;SDS011;6639;50.956;4.242;2024-03-02T10:21:49;3.50;;;1.42;;
13147;SDS011;6639;50.956;4.242;2024-03-02T10:24:17;2.72;;;1.35;;
13147;SDS011;6639;50.956;4.242;2024-03-02T10:26:45;4.93;;;1.58;;
13147;SDS011;6639;50.956;4.242;2024-03-02T10:29:12;6.60;;;2.22;;
13147;SDS011;6639;50.956;4.242;2024-03-02T10:31:40;2.90;;;1.20;;
13147;SDS011;6639;50.956;4.242;2024-03-02T10:34:08;4.78;;;1.50;;
13147;SDS011;6639;50.956;4.242;2024-03-02T10:36:37;6.50;;;2.05;;
13147;SDS011;6639;50.956;4.242;2024-03-02T10:39:07;6.30;;;1.20;;
13147;SDS011;6639;50.956;4.242;2024-03-02T10:41:35;2.35;;;1.20;;
13147;SDS011;6639;50.956;4.242;2024-03-02T10:44:03;4.95;;;1.48;;
13147;SDS011;6639;50.956;4.242;2024-03-02T10:46:31;3.67;;;1.10;;
13147;SDS011;6639;50.956;4.242;2024-03-02T10:48:59;4.13;;;1.40;;
13147;SDS011;6639;50.956;4.242;2024-03-02T10:51:27;2.95;;;1.48;;
13147;SDS011;6639;50.956;4.242;2024-03-02T10:53:58;4.10;;;1.17;;
13147;SDS011;6639;50.956;4.242;2024-03-02T10:56:27;4.50;;;1.60;;
13147;SDS011;6639;50.956;4.242;2024-03-02T10:58:55;2.92;;;1.45;;
13147;SDS011;6639;50.956;4.242;2024-03-02T11:01:29;3.25;;;1.08;;
13147;SDS011;6639;50.956;4.242;2024-03-02T11:03:58;4.60;;;1.20;;
13147;SDS011;6639;50.956;4.242;2024-03-02T11:06:27;4.07;;;1.80;;
13147;SDS011;6639;50.956;4.242;2024-03-02T11:08:59;4.43;;;1.35;;
13147;SDS011;6639;50.956;4.242;2024-03-02T11:11:32;3.00;;;1.40;;
13147;SDS011;6639;50.956;4.242;2024-03-02T11:14:02;4.07;;;1.52;;
13147;SDS011;6639;50.956;4.242;2024-03-02T11:16:34;3.45;;;1.30;;
13147;SDS011;6639;50.956;4.242;2024-03-02T11:19:04;3.55;;;1.33;;
13147;SDS011;6639;50.956;4.242;2024-03-02T11:21:34;4.38;;;1.33;;
13147;SDS011;6639;50.956;4.242;2024-03-02T11:26:59;7.10;;;1.48;;
13147;SDS011;6639;50.956;4.242;2024-03-02T11:29:45;3.40;;;1.20;;
13147;SDS011;6639;50.956;4.242;2024-03-02T11:32:13;8.82;;;1.42;;
13147;SDS011;6639;50.956;4.242;2024-03-02T11:34:48;3.70;;;1.52;;
13147;SDS011;6639;50.956;4.242;2024-03-02T11:37:16;4.20;;;1.38;;
13147;SDS011;6639;50.956;4.242;2024-03-02T11:39:47;4.60;;;1.23;;
13147;SDS011;6639;50.956;4.242;2024-03-02T11:42:15;3.40;;;1.25;;
13147;SDS011;6639;50.956;4.242;2024-03-02T11:44:44;5.13;;;1.45;;
13147;SDS011;6639;50.956;4.242;2024-03-02T11:47:14;2.97;;;1.42;;
13147;SDS011;6639;50.956;4.242;2024-03-02T11:49:43;5.10;;;1.60;;
13147;SDS011;6639;50.956;4.242;2024-03-02T11:52:11;3.22;;;1.30;;
13147;SDS011;6639;50.956;4.242;2024-03-02T11:54:41;6.25;;;1.52;;
13147;SDS011;6639;50.956;4.242;2024-03-02T11:57:15;4.80;;;1.63;;
13147;SDS011;6639;50.956;4.242;2024-03-02T11:59:43;4.88;;;1.40;;
13147;SDS011;6639;50.956;4.242;2024-03-02T12:02:14;4.38;;;1.40;;
13147;SDS011;6639;50.956;4.242;2024-03-02T12:04:43;4.32;;;1.02;;
13147;SDS011;6639;50.956;4.242;2024-03-02T12:07:10;3.40;;;1.45;;
13147;SDS011;6639;50.956;4.242;2024-03-02T12:09:37;3.63;;;1.25;;
13147;SDS011;6639;50.956;4.242;2024-03-02T12:12:05;4.82;;;1.25;;
13147;SDS011;6639;50.956;4.242;2024-03-02T12:14:36;4.10;;;1.13;;
13147;SDS011;6639;50.956;4.242;2024-03-02T12:17:04;3.80;;;1.65;;
13147;SDS011;6639;50.956;4.242;2024-03-02T12:19:32;2.25;;;1.05;;
13147;SDS011;6639;50.956;4.242;2024-03-02T12:21:59;3.88;;;1.40;;
13147;SDS011;6639;50.956;4.242;2024-03-02T12:24:27;2.97;;;1.00;;
13147;SDS011;6639;50.956;4.242;2024-03-02T12:26:55;5.35;;;1.95;;
13147;SDS011;6639;50.956;4.242;2024-03-02T12:29:23;5.38;;;1.15;;
13147;SDS011;6639;50.956;4.242;2024-03-02T12:31:52;2.05;;;0.90;;
13147;SDS011;6639;50.956;4.242;2024-03-02T12:34:19;3.72;;;1.40;;
13147;SDS011;6639;50.956;4.242;2024-03-02T12:36:47;2.33;;;0.88;;
13147;SDS011;6639;50.956;4.242;2024-03-02T12:39:15;3.38;;;1.10;;
13147;SDS011;6639;50.956;4.242;2024-03-02T12:41:43;2.85;;;1.23;;
13147;SDS011;6639;50.956;4.242;2024-03-02T12:44:10;2.78;;;0.90;;
13147;SDS011;6639;50.956;4.242;2024-03-02T12:46:37;1.42;;;0.80;;
13147;SDS011;6639;50.956;4.242;2024-03-02T12:49:09;1.50;;;0.70;;
13147;SDS011;6639;50.956;4.242;2024-03-02T12:51:37;4.70;;;1.13;;
13147;SDS011;6639;50.956;4.242;2024-03-02T12:54:05;3.20;;;1.15;;
13147;SDS011;6639;50.956;4.242;2024-03-02T12:56:33;1.73;;;0.93;;
13147;SDS011;6639;50.956;4.242;2024-03-02T12:59:00;3.08;;;1.42;;
13147;SDS011;6639;50.956;4.242;2024-03-02T13:01:27;3.58;;;1.40;;
13147;SDS011;6639;50.956;4.242;2024-03-02T13:03:54;3.35;;;1.00;;
13147;SDS011;6639;50.956;4.242;2024-03-02T13:06:24;2.70;;;1.25;;
13147;SDS011;6639;50.956;4.242;2024-03-02T13:08:56;2.58;;;1.00;;
13147;SDS011;6639;50.956;4.242;2024-03-02T13:11:23;3.15;;;1.00;;
13147;SDS011;6639;50.956;4.242;2024-03-02T13:14:07;3.65;;;1.20;;
13147;SDS011;6639;50.956;4.242;2024-03-02T13:16:38;1.80;;;0.90;;
13147;SDS011;6639;50.956;4.242;2024-03-02T13:19:06;2.03;;;1.15;;
13147;SDS011;6639;50.956;4.242;2024-03-02T13:21:35;2.25;;;0.90;;
13147;SDS011;6639;50.956;4.242;2024-03-02T13:24:02;5.20;;;1.20;;
13147;SDS011;6639;50.956;4.242;2024-03-02T13:26:30;3.67;;;1.00;;
13147;SDS011;6639;50.956;4.242;2024-03-02T13:28:57;2.03;;;0.77;;
13147;SDS011;6639;50.956;4.242;2024-03-02T13:31:24;1.38;;;0.70;;
13147;SDS011;6639;50.956;4.242;2024-03-02T13:33:50;7.03;;;1.33;;
13147;SDS011;6639;50.956;4.242;2024-03-02T13:36:17;1.45;;;0.68;;
13147;SDS011;6639;50.956;4.242;2024-03-02T13:38:46;1.65;;;0.90;;
13147;SDS011;6639;50.956;4.242;2024-03-02T13:41:13;0.98;;;0.80;;
13147;SDS011;6639;50.956;4.242;2024-03-02T13:43:40;3.67;;;1.13;;
13147;SDS011;6639;50.956;4.242;2024-03-02T13:46:07;1.70;;;0.90;;
13147;SDS011;6639;50.956;4.242;2024-03-02T13:48:35;4.32;;;1.42;;
13147;SDS011;6639;50.956;4.242;2024-03-02T13:51:02;2.55;;;1.13;;
13147;SDS011;6639;50.956;4.242;2024-03-02T13:53:29;1.80;;;1.02;;
13147;SDS011;6639;50.956;4.242;2024-03-02T13:55:59;3.47;;;1.85;;
13147;SDS011;6639;50.956;4.242;2024-03-02T13:58:26;2.63;;;1.30;;
13147;SDS011;6639;50.956;4.242;2024-03-02T14:00:53;1.45;;;0.82;;
13147;SDS011;6639;50.956;4.242;2024-03-02T14:03:24;2.95;;;0.90;;
13147;SDS011;6639;50.956;4.242;2024-03-02T14:05:53;0.85;;;0.77;;
13147;SDS011;6639;50.956;4.242;2024-03-02T14:08:21;4.65;;;1.08;;
13147;SDS011;6639;50.956;4.242;2024-03-02T14:10:48;3.03;;;0.88;;
13147;SDS011;6639;50.956;4.242;2024-03-02T14:13:17;2.28;;;1.00;;
13147;SDS011;6639;50.956;4.242;2024-03-02T14:15:44;3.45;;;1.30;;
13147;SDS011;6639;50.956;4.242;2024-03-02T14:18:11;1.98;;;1.13;;
13147;SDS011;6639;50.956;4.242;2024-03-02T14:20:38;2.38;;;0.70;;
13147;SDS011;6639;50.956;4.242;2024-03-02T14:23:07;3.50;;;1.00;;
13147;SDS011;6639;50.956;4.242;2024-03-02T14:25:35;2.28;;;0.93;;
13147;SDS011;6639;50.956;4.242;2024-03-02T14:28:02;3.03;;;1.10;;
13147;SDS011;6639;50.956;4.242;2024-03-02T14:30:31;1.52;;;1.27;;
13147;SDS011;6639;50.956;4.242;2024-03-02T14:32:59;1.08;;;0.88;;
13147;SDS011;6639;50.956;4.242;2024-03-02T14:35:26;1.65;;;1.10;;
13147;SDS011;6639;50.956;4.242;2024-03-02T14:38:05;3.78;;;1.02;;
13147;SDS011;6639;50.956;4.242;2024-03-02T14:40:32;2.13;;;1.08;;
13147;SDS011;6639;50.956;4.242;2024-03-02T14:42:59;2.33;;;0.98;;
13147;SDS011;6639;50.956;4.242;2024-03-02T14:45:26;0.95;;;0.77;;
13147;SDS011;6639;50.956;4.242;2024-03-02T14:47:54;1.88;;;1.45;;
13147;SDS011;6639;50.956;4.242;2024-03-02T14:50:24;3.90;;;1.00;;
13147;SDS011;6639;50.956;4.242;2024-03-02T14:52:51;0.95;;;0.73;;
13147;SDS011;6639;50.956;4.242;2024-03-02T14:55:22;1.52;;;0.98;;
13147;SDS011;6639;50.956;4.242;2024-03-02T14:57:49;3.50;;;1.23;;
13147;SDS011;6639;50.956;4.242;2024-03-02T15:00:16;3.78;;;1.17;;
13147;SDS011;6639;50.956;4.242;2024-03-02T15:02:44;1.15;;;1.02;;
13147;SDS011;6639;50.956;4.242;2024-03-02T15:05:13;2.20;;;0.98;;
13147;SDS011;6639;50.956;4.242;2024-03-02T15:07:40;1.45;;;1.10;;
13147;SDS011;6639;50.956;4.242;2024-03-02T15:10:07;1.15;;;0.85;;
13147;SDS011;6639;50.956;4.242;2024-03-02T15:12:34;2.88;;;1.05;;
13147;SDS011;6639;50.956;4.242;2024-03-02T15:15:01;2.20;;;1.08;;
13147;SDS011;6639;50.956;4.242;2024-03-02T15:17:28;2.47;;;0.82;;